sensor_id;sensor_type;location;lat;lon;timestamp;P1;durP1;ratioP1;P2;durP2;ratioP2
31224;SDS011;17847;31.524;74.366;2024-02-15T00:02:09;64.07;;;44.15;;
31224;SDS011;17847;31.524;74.366;2024-02-15T00:04:40;71.55;;;45.08;;
31224;SDS011;17847;31.524;74.366;2024-02-15T00:07:11;69.93;;;45.53;;
31224;SDS011;17847;31.524;74.366;2024-02-15T00:09:40;59.95;;;43.50;;
31224;SDS011;17847;31.524;74.366;2024-02-15T00:12:10;68.00;;;45.63;;
31224;SDS011;17847;31.524;74.366;2024-02-15T00:14:39;68.63;;;45.50;;
31224;SDS011;17847;31.524;74.366;2024-02-15T00:17:09;76.00;;;45.75;;
31224;SDS011;17847;31.524;74.366;2024-02-15T00:19:40;63.13;;;45.22;;
31224;SDS011;17847;31.524;74.366;2024-02-15T00:22:10;62.10;;;46.67;;
31224;SDS011;17847;31.524;74.366;2024-02-15T00:24:39;77.63;;;48.15;;
31224;SDS011;17847;31.524;74.366;2024-02-15T00:27:10;67.70;;;48.03;;
31224;SDS011;17847;31.524;74.366;2024-02-15T00:29:40;75.40;;;48.10;;
31224;SDS011;17847;31.524;74.366;2024-02-15T00:32:09;79.22;;;51.72;;
31224;SDS011;17847;31.524;74.366;2024-02-15T00:34:40;75.80;;;48.80;;
31224;SDS011;17847;31.524;74.366;2024-02-15T00:37:10;75.18;;;49.05;;
31224;SDS011;17847;31.524;74.366;2024-02-15T00:39:40;71.53;;;49.17;;
31224;SDS011;17847;31.524;74.366;2024-02-15T00:42:11;72.55;;;49.13;;
31224;SDS011;17847;31.524;74.366;2024-02-15T00:44:41;78.13;;;50.63;;
31224;SDS011;17847;31.524;74.366;2024-02-15T00:47:13;67.43;;;50.13;;
31224;SDS011;17847;31.524;74.366;2024-02-15T00:49:47;64.35;;;48.33;;
31224;SDS011;17847;31.524;74.366;2024-02-15T00:52:18;68.18;;;49.60;;
31224;SDS011;17847;31.524;74.366;2024-02-15T00:54:49;74.93;;;50.30;;
31224;SDS011;17847;31.524;74.366;2024-02-15T00:57:18;70.18;;;49.85;;
31224;SDS011;17847;31.524;74.366;2024-02-15T00:59:48;75.55;;;47.97;;
31224;SDS011;17847;31.524;74.366;2024-02-15T01:02:17;72.65;;;51.08;;
31224;SDS011;17847;31.524;74.366;2024-02-15T01:04:47;69.28;;;47.85;;
31224;SDS011;17847;31.524;74.366;2024-02-15T01:07:18;68.78;;;49.03;;
31224;SDS011;17847;31.524;74.366;2024-02-15T01:09:48;73.20;;;50.42;;
31224;SDS011;17847;31.524;74.366;2024-02-15T01:12:17;73.07;;;48.45;;
31224;SDS011;17847;31.524;74.366;2024-02-15T01:14:47;71.97;;;48.83;;
31224;SDS011;17847;31.524;74.366;2024-02-15T01:17:17;73.53;;;49.58;;
31224;SDS011;17847;31.524;74.366;2024-02-15T01:19:46;70.65;;;49.08;;
31224;SDS011;17847;31.524;74.366;2024-02-15T01:22:16;71.28;;;47.78;;
31224;SDS011;17847;31.524;74.366;2024-02-15T01:24:46;72.38;;;49.85;;
31224;SDS011;17847;31.524;74.366;2024-02-15T01:27:15;70.88;;;47.92;;
31224;SDS011;17847;31.524;74.366;2024-02-15T01:29:46;75.70;;;49.55;;
31224;SDS011;17847;31.524;74.366;2024-02-15T01:32:15;72.85;;;50.50;;
31224;SDS011;17847;31.524;74.366;2024-02-15T01:34:44;72.85;;;48.15;;
31224;SDS011;17847;31.524;74.366;2024-02-15T01:37:14;76.50;;;50.00;;
31224;SDS011;17847;31.524;74.366;2024-02-15T01:39:44;76.38;;;48.95;;
31224;SDS011;17847;31.524;74.366;2024-02-15T01:42:13;79.80;;;48.05;;
31224;SDS011;17847;31.524;74.366;2024-02-15T01:44:43;69.88;;;48.80;;
31224;SDS011;17847;31.524;74.366;2024-02-15T01:47:12;73.55;;;49.20;;
31224;SDS011;17847;31.524;74.366;2024-02-15T01:49:43;73.05;;;49.25;;
31224;SDS011;17847;31.524;74.366;2024-02-15T01:52:12;83.22;;;51.45;;
31224;SDS011;17847;31.524;74.366;2024-02-15T01:54:44;89.90;;;50.80;;
31224;SDS011;17847;31.524;74.366;2024-02-15T01:57:15;71.65;;;50.00;;
31224;SDS011;17847;31.524;74.366;2024-02-15T01:59:45;74.72;;;48.97;;
31224;SDS011;17847;31.524;74.366;2024-02-15T02:02:16;68.72;;;48.40;;
31224;SDS011;17847;31.524;74.366;2024-02-15T02:07:18;69.78;;;47.45;;
31224;SDS011;17847;31.524;74.366;2024-02-15T02:09:48;74.30;;;50.47;;
31224;SDS011;17847;31.524;74.366;2024-02-15T02:12:18;76.72;;;52.00;;
31224;SDS011;17847;31.524;74.366;2024-02-15T02:14:47;88.63;;;52.55;;
31224;SDS011;17847;31.524;74.366;2024-02-15T02:17:18;84.20;;;52.35;;
31224;SDS011;17847;31.524;74.366;2024-02-15T02:19:48;88.10;;;52.72;;
31224;SDS011;17847;31.524;74.366;2024-02-15T02:22:19;80.68;;;53.78;;
31224;SDS011;17847;31.524;74.366;2024-02-15T02:24:59;87.63;;;56.28;;
31224;SDS011;17847;31.524;74.366;2024-02-15T02:27:34;90.93;;;57.28;;
31224;SDS011;17847;31.524;74.366;2024-02-15T02:30:05;95.03;;;60.38;;
31224;SDS011;17847;31.524;74.366;2024-02-15T02:32:47;101.30;;;62.08;;
31224;SDS011;17847;31.524;74.366;2024-02-15T02:35:17;97.95;;;61.70;;
31224;SDS011;17847;31.524;74.366;2024-02-15T02:37:49;115.47;;;67.00;;
31224;SDS011;17847;31.524;74.366;2024-02-15T02:40:21;111.13;;;64.77;;
31224;SDS011;17847;31.524;74.366;2024-02-15T02:42:52;110.65;;;65.75;;
31224;SDS011;17847;31.524;74.366;2024-02-15T02:45:24;102.78;;;65.15;;
31224;SDS011;17847;31.524;74.366;2024-02-15T02:47:54;108.57;;;62.75;;
31224;SDS011;17847;31.524;74.366;2024-02-15T02:50:24;108.68;;;66.82;;
31224;SDS011;17847;31.524;74.366;2024-02-15T02:52:55;111.13;;;64.32;;
31224;SDS011;17847;31.524;74.366;2024-02-15T02:55:24;109.97;;;65.22;;
31224;SDS011;17847;31.524;74.366;2024-02-15T02:57:55;111.30;;;62.58;;
31224;SDS011;17847;31.524;74.366;2024-02-15T03:00:25;105.70;;;62.08;;
31224;SDS011;17847;31.524;74.366;2024-02-15T03:02:56;104.40;;;57.28;;
31224;SDS011;17847;31.524;74.366;2024-02-15T03:05:25;92.32;;;56.92;;
31224;SDS011;17847;31.524;74.366;2024-02-15T03:07:55;103.45;;;58.83;;
31224;SDS011;17847;31.524;74.366;2024-02-15T03:10:25;94.97;;;56.90;;
31224;SDS011;17847;31.524;74.366;2024-02-15T03:12:54;100.30;;;57.58;;
31224;SDS011;17847;31.524;74.366;2024-02-15T03:15:24;100.75;;;58.72;;
31224;SDS011;17847;31.524;74.366;2024-02-15T03:17:53;97.07;;;60.25;;
31224;SDS011;17847;31.524;74.366;2024-02-15T03:20:23;90.53;;;59.42;;
31224;SDS011;17847;31.524;74.366;2024-02-15T03:22:57;90.95;;;57.30;;
31224;SDS011;17847;31.524;74.366;2024-02-15T03:25:27;85.68;;;54.95;;
31224;SDS011;17847;31.524;74.366;2024-02-15T03:27:58;91.28;;;57.50;;
31224;SDS011;17847;31.524;74.366;2024-02-15T03:30:31;77.90;;;55.75;;
31224;SDS011;17847;31.524;74.366;2024-02-15T03:33:04;79.10;;;53.15;;
31224;SDS011;17847;31.524;74.366;2024-02-15T03:35:34;73.45;;;53.58;;
31224;SDS011;17847;31.524;74.366;2024-02-15T03:38:04;75.18;;;51.50;;
31224;SDS011;17847;31.524;74.366;2024-02-15T03:40:35;81.65;;;50.45;;
31224;SDS011;17847;31.524;74.366;2024-02-15T03:43:07;64.95;;;48.42;;
31224;SDS011;17847;31.524;74.366;2024-02-15T03:45:38;71.07;;;48.73;;
31224;SDS011;17847;31.524;74.366;2024-02-15T03:48:07;74.72;;;49.45;;
31224;SDS011;17847;31.524;74.366;2024-02-15T03:50:37;72.93;;;48.10;;
31224;SDS011;17847;31.524;74.366;2024-02-15T03:53:09;71.43;;;48.55;;
31224;SDS011;17847;31.524;74.366;2024-02-15T03:55:42;73.50;;;46.00;;
31224;SDS011;17847;31.524;74.366;2024-02-15T03:58:11;78.50;;;45.13;;
31224;SDS011;17847;31.524;74.366;2024-02-15T04:00:43;64.82;;;45.47;;
31224;SDS011;17847;31.524;74.366;2024-02-15T04:03:12;65.45;;;44.47;;
31224;SDS011;17847;31.524;74.366;2024-02-15T04:05:42;57.90;;;44.20;;
31224;SDS011;17847;31.524;74.366;2024-02-15T04:08:11;54.00;;;39.10;;
31224;SDS011;17847;31.524;74.366;2024-02-15T04:10:40;50.42;;;38.08;;
31224;SDS011;17847;31.524;74.366;2024-02-15T04:13:10;57.92;;;38.10;;
31224;SDS011;17847;31.524;74.366;2024-02-15T04:15:39;56.53;;;38.08;;
31224;SDS011;17847;31.524;74.366;2024-02-15T04:18:12;53.65;;;36.95;;
31224;SDS011;17847;31.524;74.366;2024-02-15T04:20:43;52.03;;;35.40;;
31224;SDS011;17847;31.524;74.366;2024-02-15T04:23:14;47.67;;;33.90;;
31224;SDS011;17847;31.524;74.366;2024-02-15T04:25:44;42.05;;;32.45;;
31224;SDS011;17847;31.524;74.366;2024-02-15T04:28:19;43.83;;;31.63;;
31224;SDS011;17847;31.524;74.366;2024-02-15T04:30:49;46.45;;;30.27;;
31224;SDS011;17847;31.524;74.366;2024-02-15T04:33:18;43.63;;;30.15;;
31224;SDS011;17847;31.524;74.366;2024-02-15T04:35:48;43.97;;;30.20;;
31224;SDS011;17847;31.524;74.366;2024-02-15T04:38:20;47.65;;;27.15;;
31224;SDS011;17847;31.524;74.366;2024-02-15T04:40:49;39.03;;;26.08;;
31224;SDS011;17847;31.524;74.366;2024-02-15T04:43:19;30.15;;;24.38;;
31224;SDS011;17847;31.524;74.366;2024-02-15T04:45:49;35.08;;;25.38;;
31224;SDS011;17847;31.524;74.366;2024-02-15T04:48:19;38.67;;;26.45;;
31224;SDS011;17847;31.524;74.366;2024-02-15T04:50:50;37.58;;;25.27;;
31224;SDS011;17847;31.524;74.366;2024-02-15T04:53:20;40.30;;;26.83;;
31224;SDS011;17847;31.524;74.366;2024-02-15T04:55:50;39.22;;;27.42;;
31224;SDS011;17847;31.524;74.366;2024-02-15T04:58:19;35.13;;;25.60;;
31224;SDS011;17847;31.524;74.366;2024-02-15T05:00:49;29.15;;;24.63;;
31224;SDS011;17847;31.524;74.366;2024-02-15T05:03:21;34.60;;;24.75;;
31224;SDS011;17847;31.524;74.366;2024-02-15T05:05:52;39.72;;;25.75;;
31224;SDS011;17847;31.524;74.366;2024-02-15T05:08:22;32.33;;;25.75;;
31224;SDS011;17847;31.524;74.366;2024-02-15T05:10:51;36.80;;;25.17;;
31224;SDS011;17847;31.524;74.366;2024-02-15T05:13:25;36.42;;;25.77;;
31224;SDS011;17847;31.524;74.366;2024-02-15T05:15:54;34.72;;;26.95;;
31224;SDS011;17847;31.524;74.366;2024-02-15T05:18:23;42.67;;;28.52;;
31224;SDS011;17847;31.524;74.366;2024-02-15T05:20:53;35.70;;;28.98;;
31224;SDS011;17847;31.524;74.366;2024-02-15T05:23:23;45.28;;;29.00;;
31224;SDS011;17847;31.524;74.366;2024-02-15T05:25:52;46.03;;;29.98;;
31224;SDS011;17847;31.524;74.366;2024-02-15T05:28:22;53.97;;;31.00;;
31224;SDS011;17847;31.524;74.366;2024-02-15T05:31:14;42.92;;;31.58;;
31224;SDS011;17847;31.524;74.366;2024-02-15T05:33:53;48.22;;;31.38;;
31224;SDS011;17847;31.524;74.366;2024-02-15T05:36:23;49.75;;;30.27;;
31224;SDS011;17847;31.524;74.366;2024-02-15T05:38:54;39.42;;;27.75;;
31224;SDS011;17847;31.524;74.366;2024-02-15T05:41:23;37.80;;;26.58;;
31224;SDS011;17847;31.524;74.366;2024-02-15T05:43:52;38.38;;;27.50;;
31224;SDS011;17847;31.524;74.366;2024-02-15T05:46:22;39.13;;;26.95;;
31224;SDS011;17847;31.524;74.366;2024-02-15T05:48:51;36.83;;;26.65;;
31224;SDS011;17847;31.524;74.366;2024-02-15T05:51:22;41.22;;;26.25;;
31224;SDS011;17847;31.524;74.366;2024-02-15T05:53:51;39.45;;;27.88;;
31224;SDS011;17847;31.524;74.366;2024-02-15T05:56:27;46.35;;;26.42;;
31224;SDS011;17847;31.524;74.366;2024-02-15T05:58:58;36.55;;;27.75;;
31224;SDS011;17847;31.524;74.366;2024-02-15T06:01:27;38.13;;;28.90;;
31224;SDS011;17847;31.524;74.366;2024-02-15T06:03:57;40.55;;;27.98;;
31224;SDS011;17847;31.524;74.366;2024-02-15T06:06:28;37.20;;;27.13;;
31224;SDS011;17847;31.524;74.366;2024-02-15T06:08:58;39.20;;;27.15;;
31224;SDS011;17847;31.524;74.366;2024-02-15T06:11:28;39.78;;;27.20;;
31224;SDS011;17847;31.524;74.366;2024-02-15T06:13:58;38.47;;;26.25;;
31224;SDS011;17847;31.524;74.366;2024-02-15T06:16:27;32.42;;;25.13;;
31224;SDS011;17847;31.524;74.366;2024-02-15T06:18:56;39.90;;;25.85;;
31224;SDS011;17847;31.524;74.366;2024-02-15T06:21:26;30.38;;;24.90;;
31224;SDS011;17847;31.524;74.366;2024-02-15T06:23:56;34.17;;;23.83;;
31224;SDS011;17847;31.524;74.366;2024-02-15T06:26:27;33.10;;;23.83;;
31224;SDS011;17847;31.524;74.366;2024-02-15T06:28:56;36.78;;;22.75;;
31224;SDS011;17847;31.524;74.366;2024-02-15T06:31:44;35.75;;;21.55;;
31224;SDS011;17847;31.524;74.366;2024-02-15T06:34:31;29.73;;;20.95;;
31224;SDS011;17847;31.524;74.366;2024-02-15T06:37:34;29.30;;;21.95;;
31224;SDS011;17847;31.524;74.366;2024-02-15T06:40:23;30.08;;;21.73;;
31224;SDS011;17847;31.524;74.366;2024-02-15T06:42:53;30.27;;;22.15;;
31224;SDS011;17847;31.524;74.366;2024-02-15T06:45:23;32.35;;;23.67;;
31224;SDS011;17847;31.524;74.366;2024-02-15T06:47:53;36.22;;;23.20;;
31224;SDS011;17847;31.524;74.366;2024-02-15T06:50:22;29.15;;;23.13;;
31224;SDS011;17847;31.524;74.366;2024-02-15T06:52:51;32.80;;;25.50;;
31224;SDS011;17847;31.524;74.366;2024-02-15T06:55:21;34.55;;;24.75;;
31224;SDS011;17847;31.524;74.366;2024-02-15T06:57:51;31.20;;;23.13;;
31224;SDS011;17847;31.524;74.366;2024-02-15T07:00:23;32.60;;;24.25;;
31224;SDS011;17847;31.524;74.366;2024-02-15T07:02:53;33.83;;;22.15;;
31224;SDS011;17847;31.524;74.366;2024-02-15T07:05:22;32.22;;;23.05;;
31224;SDS011;17847;31.524;74.366;2024-02-15T07:07:51;33.38;;;22.80;;
31224;SDS011;17847;31.524;74.366;2024-02-15T07:10:21;36.00;;;22.60;;
31224;SDS011;17847;31.524;74.366;2024-02-15T07:12:50;31.65;;;22.55;;
31224;SDS011;17847;31.524;74.366;2024-02-15T07:15:20;36.08;;;22.17;;
31224;SDS011;17847;31.524;74.366;2024-02-15T07:17:50;28.05;;;22.40;;
31224;SDS011;17847;31.524;74.366;2024-02-15T07:20:23;38.13;;;23.85;;
31224;SDS011;17847;31.524;74.366;2024-02-15T07:22:52;25.15;;;20.70;;
31224;SDS011;17847;31.524;74.366;2024-02-15T07:25:22;30.27;;;21.52;;
31224;SDS011;17847;31.524;74.366;2024-02-15T07:27:51;28.88;;;22.00;;
31224;SDS011;17847;31.524;74.366;2024-02-15T07:30:22;33.92;;;22.35;;
31224;SDS011;17847;31.524;74.366;2024-02-15T07:32:52;32.10;;;20.98;;
31224;SDS011;17847;31.524;74.366;2024-02-15T07:35:22;29.60;;;21.55;;
31224;SDS011;17847;31.524;74.366;2024-02-15T07:37:54;31.27;;;21.83;;
31224;SDS011;17847;31.524;74.366;2024-02-15T07:40:26;27.20;;;21.88;;
31224;SDS011;17847;31.524;74.366;2024-02-15T07:42:58;33.92;;;21.80;;
31224;SDS011;17847;31.524;74.366;2024-02-15T07:45:28;31.83;;;22.98;;
31224;SDS011;17847;31.524;74.366;2024-02-15T07:47:57;35.35;;;23.15;;
31224;SDS011;17847;31.524;74.366;2024-02-15T07:50:27;29.45;;;22.00;;
31224;SDS011;17847;31.524;74.366;2024-02-15T07:52:57;32.15;;;22.40;;
31224;SDS011;17847;31.524;74.366;2024-02-15T07:55:27;35.50;;;24.15;;
31224;SDS011;17847;31.524;74.366;2024-02-15T07:57:56;30.55;;;23.45;;
31224;SDS011;17847;31.524;74.366;2024-02-15T08:00:27;36.38;;;25.30;;
31224;SDS011;17847;31.524;74.366;2024-02-15T08:02:58;36.05;;;25.08;;
31224;SDS011;17847;31.524;74.366;2024-02-15T08:05:28;35.60;;;24.60;;
31224;SDS011;17847;31.524;74.366;2024-02-15T08:07:57;34.78;;;25.27;;
31224;SDS011;17847;31.524;74.366;2024-02-15T08:10:26;38.95;;;26.83;;
31224;SDS011;17847;31.524;74.366;2024-02-15T08:12:57;38.03;;;25.88;;
31224;SDS011;17847;31.524;74.366;2024-02-15T08:15:27;32.63;;;25.58;;
31224;SDS011;17847;31.524;74.366;2024-02-15T08:17:57;36.50;;;25.48;;
31224;SDS011;17847;31.524;74.366;2024-02-15T08:20:27;37.65;;;27.23;;
31224;SDS011;17847;31.524;74.366;2024-02-15T08:22:59;33.60;;;25.50;;
31224;SDS011;17847;31.524;74.366;2024-02-15T08:25:29;35.13;;;24.70;;
31224;SDS011;17847;31.524;74.366;2024-02-15T08:28:00;34.25;;;26.65;;
31224;SDS011;17847;31.524;74.366;2024-02-15T08:30:33;37.70;;;27.58;;
31224;SDS011;17847;31.524;74.366;2024-02-15T08:33:03;37.22;;;27.42;;
31224;SDS011;17847;31.524;74.366;2024-02-15T08:35:33;32.00;;;25.13;;
31224;SDS011;17847;31.524;74.366;2024-02-15T08:38:03;45.35;;;27.70;;
31224;SDS011;17847;31.524;74.366;2024-02-15T08:40:42;39.10;;;27.27;;
31224;SDS011;17847;31.524;74.366;2024-02-15T08:43:15;36.53;;;26.15;;
31224;SDS011;17847;31.524;74.366;2024-02-15T08:45:49;30.63;;;22.65;;
31224;SDS011;17847;31.524;74.366;2024-02-15T08:48:18;34.55;;;22.48;;
31224;SDS011;17847;31.524;74.366;2024-02-15T08:50:51;37.08;;;25.25;;
31224;SDS011;17847;31.524;74.366;2024-02-15T08:53:21;31.77;;;23.17;;
31224;SDS011;17847;31.524;74.366;2024-02-15T08:55:51;35.03;;;23.60;;
31224;SDS011;17847;31.524;74.366;2024-02-15T08:58:21;26.52;;;21.83;;
31224;SDS011;17847;31.524;74.366;2024-02-15T09:00:50;37.30;;;26.77;;
31224;SDS011;17847;31.524;74.366;2024-02-15T09:03:22;41.17;;;27.60;;
31224;SDS011;17847;31.524;74.366;2024-02-15T09:05:52;40.55;;;26.88;;
31224;SDS011;17847;31.524;74.366;2024-02-15T09:08:21;35.25;;;24.45;;
31224;SDS011;17847;31.524;74.366;2024-02-15T09:10:51;33.88;;;23.40;;
31224;SDS011;17847;31.524;74.366;2024-02-15T09:13:22;31.75;;;23.83;;
31224;SDS011;17847;31.524;74.366;2024-02-15T09:15:51;33.25;;;22.52;;
31224;SDS011;17847;31.524;74.366;2024-02-15T09:18:21;31.98;;;22.00;;
31224;SDS011;17847;31.524;74.366;2024-02-15T09:20:53;30.67;;;23.42;;
31224;SDS011;17847;31.524;74.366;2024-02-15T09:23:24;34.47;;;22.42;;
31224;SDS011;17847;31.524;74.366;2024-02-15T09:25:57;31.30;;;21.58;;
31224;SDS011;17847;31.524;74.366;2024-02-15T09:28:27;33.95;;;24.98;;
31224;SDS011;17847;31.524;74.366;2024-02-15T09:30:58;33.40;;;22.55;;
31224;SDS011;17847;31.524;74.366;2024-02-15T09:33:27;33.67;;;24.13;;
31224;SDS011;17847;31.524;74.366;2024-02-15T09:35:57;28.45;;;21.95;;
31224;SDS011;17847;31.524;74.366;2024-02-15T09:38:27;34.60;;;21.23;;
31224;SDS011;17847;31.524;74.366;2024-02-15T09:40:57;30.95;;;19.88;;
31224;SDS011;17847;31.524;74.366;2024-02-15T09:43:27;29.33;;;21.98;;
31224;SDS011;17847;31.524;74.366;2024-02-15T09:45:58;31.63;;;22.48;;
31224;SDS011;17847;31.524;74.366;2024-02-15T09:48:28;31.40;;;21.63;;
31224;SDS011;17847;31.524;74.366;2024-02-15T09:51:01;33.97;;;23.70;;
31224;SDS011;17847;31.524;74.366;2024-02-15T09:53:31;29.92;;;22.02;;
31224;SDS011;17847;31.524;74.366;2024-02-15T09:56:01;30.13;;;22.15;;
31224;SDS011;17847;31.524;74.366;2024-02-15T09:58:33;33.50;;;23.25;;
31224;SDS011;17847;31.524;74.366;2024-02-15T10:01:03;30.25;;;23.27;;
31224;SDS011;17847;31.524;74.366;2024-02-15T10:03:38;34.47;;;22.50;;
31224;SDS011;17847;31.524;74.366;2024-02-15T10:06:11;31.63;;;21.42;;
31224;SDS011;17847;31.524;74.366;2024-02-15T10:08:41;30.38;;;20.25;;
31224;SDS011;17847;31.524;74.366;2024-02-15T10:11:10;29.92;;;21.00;;
31224;SDS011;17847;31.524;74.366;2024-02-15T10:13:40;28.30;;;19.58;;
31224;SDS011;17847;31.524;74.366;2024-02-15T10:16:18;23.75;;;18.08;;
31224;SDS011;17847;31.524;74.366;2024-02-15T10:18:48;29.00;;;18.58;;
31224;SDS011;17847;31.524;74.366;2024-02-15T10:21:25;24.27;;;17.55;;
31224;SDS011;17847;31.524;74.366;2024-02-15T10:24:04;23.48;;;16.50;;
31224;SDS011;17847;31.524;74.366;2024-02-15T10:26:37;20.38;;;14.63;;
31224;SDS011;17847;31.524;74.366;2024-02-15T10:29:10;21.05;;;14.32;;
31224;SDS011;17847;31.524;74.366;2024-02-15T10:31:40;22.45;;;13.82;;
31224;SDS011;17847;31.524;74.366;2024-02-15T10:34:25;18.55;;;13.23;;
31224;SDS011;17847;31.524;74.366;2024-02-15T10:37:11;22.83;;;14.32;;
31224;SDS011;17847;31.524;74.366;2024-02-15T10:42:11;22.10;;;14.95;;
31224;SDS011;17847;31.524;74.366;2024-02-15T10:44:41;19.65;;;13.05;;
31224;SDS011;17847;31.524;74.366;2024-02-15T10:47:14;21.90;;;14.00;;
31224;SDS011;17847;31.524;74.366;2024-02-15T10:49:43;16.55;;;13.20;;
31224;SDS011;17847;31.524;74.366;2024-02-15T10:52:15;28.73;;;15.75;;
31224;SDS011;17847;31.524;74.366;2024-02-15T10:54:49;24.50;;;14.75;;
31224;SDS011;17847;31.524;74.366;2024-02-15T10:57:21;15.13;;;13.00;;
31224;SDS011;17847;31.524;74.366;2024-02-15T10:59:58;16.85;;;11.68;;
31224;SDS011;17847;31.524;74.366;2024-02-15T11:03:08;16.65;;;11.90;;
31224;SDS011;17847;31.524;74.366;2024-02-15T11:05:42;16.88;;;13.27;;
31224;SDS011;17847;31.524;74.366;2024-02-15T11:08:14;26.55;;;14.27;;
31224;SDS011;17847;31.524;74.366;2024-02-15T11:10:45;20.45;;;13.30;;
31224;SDS011;17847;31.524;74.366;2024-02-15T11:13:16;20.60;;;12.63;;
31224;SDS011;17847;31.524;74.366;2024-02-15T11:15:45;17.40;;;11.82;;
31224;SDS011;17847;31.524;74.366;2024-02-15T11:18:41;24.38;;;12.32;;
31224;SDS011;17847;31.524;74.366;2024-02-15T11:21:15;20.15;;;14.30;;
31224;SDS011;17847;31.524;74.366;2024-02-15T11:23:46;21.10;;;14.77;;
31224;SDS011;17847;31.524;74.366;2024-02-15T11:26:48;24.00;;;14.38;;
31224;SDS011;17847;31.524;74.366;2024-02-15T11:35:08;25.50;;;17.83;;
31224;SDS011;17847;31.524;74.366;2024-02-15T11:37:50;23.95;;;16.98;;
31224;SDS011;17847;31.524;74.366;2024-02-15T11:40:22;32.38;;;19.05;;
31224;SDS011;17847;31.524;74.366;2024-02-15T11:42:58;26.10;;;17.30;;
31224;SDS011;17847;31.524;74.366;2024-02-15T11:45:29;23.45;;;17.55;;
31224;SDS011;17847;31.524;74.366;2024-02-15T11:48:07;24.75;;;16.67;;
31224;SDS011;17847;31.524;74.366;2024-02-15T11:50:41;23.25;;;16.27;;
31224;SDS011;17847;31.524;74.366;2024-02-15T11:53:11;25.23;;;15.82;;
31224;SDS011;17847;31.524;74.366;2024-02-15T11:55:42;25.65;;;16.95;;
31224;SDS011;17847;31.524;74.366;2024-02-15T11:58:11;22.42;;;15.18;;
31224;SDS011;17847;31.524;74.366;2024-02-15T12:01:00;24.05;;;14.90;;
31224;SDS011;17847;31.524;74.366;2024-02-15T12:03:52;23.83;;;15.27;;
31224;SDS011;17847;31.524;74.366;2024-02-15T12:06:41;20.55;;;14.55;;
31224;SDS011;17847;31.524;74.366;2024-02-15T12:09:29;24.17;;;15.38;;
31224;SDS011;17847;31.524;74.366;2024-02-15T12:12:16;24.30;;;15.40;;
31224;SDS011;17847;31.524;74.366;2024-02-15T12:15:04;25.17;;;15.18;;
31224;SDS011;17847;31.524;74.366;2024-02-15T12:17:52;25.17;;;15.25;;
31224;SDS011;17847;31.524;74.366;2024-02-15T12:20:40;24.73;;;15.85;;
31224;SDS011;17847;31.524;74.366;2024-02-15T12:23:10;21.67;;;15.23;;
31224;SDS011;17847;31.524;74.366;2024-02-15T12:25:42;29.02;;;15.52;;
31224;SDS011;17847;31.524;74.366;2024-02-15T12:28:12;24.60;;;14.98;;
31224;SDS011;17847;31.524;74.366;2024-02-15T12:30:43;19.35;;;15.75;;
31224;SDS011;17847;31.524;74.366;2024-02-15T12:33:13;22.23;;;15.48;;
31224;SDS011;17847;31.524;74.366;2024-02-15T12:35:49;28.25;;;16.05;;
31224;SDS011;17847;31.524;74.366;2024-02-15T12:38:19;21.58;;;15.57;;
31224;SDS011;17847;31.524;74.366;2024-02-15T12:40:49;24.05;;;15.40;;
31224;SDS011;17847;31.524;74.366;2024-02-15T12:43:19;31.13;;;16.40;;
31224;SDS011;17847;31.524;74.366;2024-02-15T12:45:49;39.88;;;17.58;;
31224;SDS011;17847;31.524;74.366;2024-02-15T12:48:18;31.85;;;16.60;;
31224;SDS011;17847;31.524;74.366;2024-02-15T12:50:48;34.05;;;17.00;;
31224;SDS011;17847;31.524;74.366;2024-02-15T12:53:26;29.35;;;17.90;;
31224;SDS011;17847;31.524;74.366;2024-02-15T12:55:55;37.17;;;17.50;;
31224;SDS011;17847;31.524;74.366;2024-02-15T12:58:25;31.60;;;18.67;;
31224;SDS011;17847;31.524;74.366;2024-02-15T13:00:56;38.47;;;17.67;;
31224;SDS011;17847;31.524;74.366;2024-02-15T13:03:27;32.42;;;18.58;;
31224;SDS011;17847;31.524;74.366;2024-02-15T13:05:57;37.80;;;18.17;;
31224;SDS011;17847;31.524;74.366;2024-02-15T13:08:27;34.22;;;19.15;;
31224;SDS011;17847;31.524;74.366;2024-02-15T13:10:56;35.22;;;19.00;;
31224;SDS011;17847;31.524;74.366;2024-02-15T13:13:26;35.20;;;19.90;;
31224;SDS011;17847;31.524;74.366;2024-02-15T13:15:55;28.83;;;18.38;;
31224;SDS011;17847;31.524;74.366;2024-02-15T13:18:26;35.92;;;20.00;;
31224;SDS011;17847;31.524;74.366;2024-02-15T13:20:56;38.85;;;18.92;;
31224;SDS011;17847;31.524;74.366;2024-02-15T13:23:29;49.22;;;20.75;;
31224;SDS011;17847;31.524;74.366;2024-02-15T13:25:59;36.35;;;21.00;;
31224;SDS011;17847;31.524;74.366;2024-02-15T13:28:32;47.38;;;20.52;;
31224;SDS011;17847;31.524;74.366;2024-02-15T13:31:02;50.55;;;21.23;;
31224;SDS011;17847;31.524;74.366;2024-02-15T13:33:31;55.20;;;22.80;;
31224;SDS011;17847;31.524;74.366;2024-02-15T13:36:01;53.20;;;22.00;;
31224;SDS011;17847;31.524;74.366;2024-02-15T13:38:32;58.35;;;23.23;;
31224;SDS011;17847;31.524;74.366;2024-02-15T13:41:01;49.10;;;24.27;;
31224;SDS011;17847;31.524;74.366;2024-02-15T13:43:32;50.30;;;22.55;;
31224;SDS011;17847;31.524;74.366;2024-02-15T13:46:02;44.42;;;21.13;;
31224;SDS011;17847;31.524;74.366;2024-02-15T13:48:32;54.60;;;24.40;;
31224;SDS011;17847;31.524;74.366;2024-02-15T13:51:02;54.63;;;26.65;;
31224;SDS011;17847;31.524;74.366;2024-02-15T13:53:32;62.47;;;28.60;;
31224;SDS011;17847;31.524;74.366;2024-02-15T13:56:03;47.08;;;29.08;;
31224;SDS011;17847;31.524;74.366;2024-02-15T13:58:33;58.50;;;30.23;;
31224;SDS011;17847;31.524;74.366;2024-02-15T14:01:03;53.65;;;33.25;;
31224;SDS011;17847;31.524;74.366;2024-02-15T14:03:33;58.25;;;32.00;;
31224;SDS011;17847;31.524;74.366;2024-02-15T14:06:05;64.70;;;35.20;;
31224;SDS011;17847;31.524;74.366;2024-02-15T14:08:34;61.97;;;34.08;;
31224;SDS011;17847;31.524;74.366;2024-02-15T14:11:04;60.85;;;34.53;;
31224;SDS011;17847;31.524;74.366;2024-02-15T14:13:34;56.22;;;33.42;;
31224;SDS011;17847;31.524;74.366;2024-02-15T14:16:04;68.10;;;34.33;;
31224;SDS011;17847;31.524;74.366;2024-02-15T14:18:36;61.97;;;33.60;;
31224;SDS011;17847;31.524;74.366;2024-02-15T14:21:07;66.05;;;33.33;;
31224;SDS011;17847;31.524;74.366;2024-02-15T14:23:39;62.72;;;34.85;;
31224;SDS011;17847;31.524;74.366;2024-02-15T14:26:08;55.83;;;35.60;;
31224;SDS011;17847;31.524;74.366;2024-02-15T14:28:38;71.03;;;35.88;;
31224;SDS011;17847;31.524;74.366;2024-02-15T14:31:10;72.50;;;34.88;;
31224;SDS011;17847;31.524;74.366;2024-02-15T14:33:58;68.65;;;37.08;;
31224;SDS011;17847;31.524;74.366;2024-02-15T14:36:28;69.72;;;38.00;;
31224;SDS011;17847;31.524;74.366;2024-02-15T14:38:58;67.38;;;36.85;;
31224;SDS011;17847;31.524;74.366;2024-02-15T14:41:27;66.80;;;37.85;;
31224;SDS011;17847;31.524;74.366;2024-02-15T14:44:00;69.93;;;38.00;;
31224;SDS011;17847;31.524;74.366;2024-02-15T14:46:29;73.25;;;36.90;;